sensor_id;sensor_type;location;lat;lon;timestamp;P1;durP1;ratioP1;P2;durP2;ratioP2
4674;SDS011;2351;50.812;12.872;2024-01-11T00:00:19;39.70;;;20.65;;
4674;SDS011;2351;50.812;12.872;2024-01-11T00:02:52;40.50;;;20.20;;
4674;SDS011;2351;50.812;12.872;2024-01-11T00:05:23;41.63;;;21.08;;
4674;SDS011;2351;50.812;12.872;2024-01-11T00:07:55;51.10;;;21.05;;
4674;SDS011;2351;50.812;12.872;2024-01-11T00:10:27;41.38;;;21.15;;
4674;SDS011;2351;50.812;12.872;2024-01-11T00:12:59;40.80;;;19.63;;
4674;SDS011;2351;50.812;12.872;2024-01-11T00:15:30;47.55;;;19.95;;
4674;SDS011;2351;50.812;12.872;2024-01-11T00:18:04;39.55;;;19.98;;
4674;SDS011;2351;50.812;12.872;2024-01-11T00:20:36;36.78;;;18.48;;
4674;SDS011;2351;50.812;12.872;2024-01-11T00:23:08;42.10;;;19.65;;
4674;SDS011;2351;50.812;12.872;2024-01-11T00:25:39;41.05;;;19.38;;
4674;SDS011;2351;50.812;12.872;2024-01-11T00:28:11;37.22;;;18.05;;
4674;SDS011;2351;50.812;12.872;2024-01-11T00:30:43;40.08;;;20.30;;
4674;SDS011;2351;50.812;12.872;2024-01-11T00:33:16;35.10;;;17.95;;
4674;SDS011;2351;50.812;12.872;2024-01-11T00:35:47;38.15;;;18.40;;
4674;SDS011;2351;50.812;12.872;2024-01-11T00:38:19;38.50;;;18.27;;
4674;SDS011;2351;50.812;12.872;2024-01-11T00:40:51;35.67;;;17.60;;
4674;SDS011;2351;50.812;12.872;2024-01-11T00:43:22;37.90;;;17.05;;
4674;SDS011;2351;50.812;12.872;2024-01-11T00:45:54;39.22;;;19.15;;
4674;SDS011;2351;50.812;12.872;2024-01-11T00:48:27;43.72;;;18.67;;
4674;SDS011;2351;50.812;12.872;2024-01-11T00:50:59;33.40;;;17.52;;
4674;SDS011;2351;50.812;12.872;2024-01-11T00:53:30;36.70;;;18.20;;
4674;SDS011;2351;50.812;12.872;2024-01-11T00:56:03;36.28;;;16.15;;
4674;SDS011;2351;50.812;12.872;2024-01-11T00:58:35;42.63;;;18.33;;
4674;SDS011;2351;50.812;12.872;2024-01-11T01:01:08;34.30;;;17.35;;
4674;SDS011;2351;50.812;12.872;2024-01-11T01:03:41;33.38;;;18.67;;
4674;SDS011;2351;50.812;12.872;2024-01-11T01:06:13;33.53;;;17.58;;
4674;SDS011;2351;50.812;12.872;2024-01-11T01:08:45;39.55;;;16.98;;
4674;SDS011;2351;50.812;12.872;2024-01-11T01:11:16;38.63;;;17.98;;
4674;SDS011;2351;50.812;12.872;2024-01-11T01:13:48;33.13;;;16.98;;
4674;SDS011;2351;50.812;12.872;2024-01-11T01:16:20;34.40;;;17.35;;
4674;SDS011;2351;50.812;12.872;2024-01-11T01:18:53;29.98;;;16.38;;
4674;SDS011;2351;50.812;12.872;2024-01-11T01:21:24;42.00;;;17.50;;
4674;SDS011;2351;50.812;12.872;2024-01-11T01:23:56;45.78;;;17.15;;
4674;SDS011;2351;50.812;12.872;2024-01-11T01:26:28;42.20;;;18.73;;
4674;SDS011;2351;50.812;12.872;2024-01-11T01:29:00;37.47;;;16.98;;
4674;SDS011;2351;50.812;12.872;2024-01-11T01:31:32;37.33;;;18.67;;
4674;SDS011;2351;50.812;12.872;2024-01-11T01:34:08;36.03;;;17.75;;
4674;SDS011;2351;50.812;12.872;2024-01-11T01:36:40;31.98;;;15.65;;
4674;SDS011;2351;50.812;12.872;2024-01-11T01:39:12;39.55;;;18.05;;
4674;SDS011;2351;50.812;12.872;2024-01-11T01:41:44;36.05;;;18.05;;
4674;SDS011;2351;50.812;12.872;2024-01-11T01:44:15;34.45;;;17.92;;
4674;SDS011;2351;50.812;12.872;2024-01-11T01:46:47;31.13;;;16.70;;
4674;SDS011;2351;50.812;12.872;2024-01-11T01:49:21;34.55;;;18.67;;
4674;SDS011;2351;50.812;12.872;2024-01-11T01:51:53;37.58;;;18.70;;
4674;SDS011;2351;50.812;12.872;2024-01-11T01:54:26;41.97;;;19.90;;
4674;SDS011;2351;50.812;12.872;2024-01-11T01:56:59;43.35;;;19.75;;
4674;SDS011;2351;50.812;12.872;2024-01-11T01:59:33;37.22;;;19.20;;
4674;SDS011;2351;50.812;12.872;2024-01-11T02:02:05;39.13;;;18.85;;
4674;SDS011;2351;50.812;12.872;2024-01-11T02:04:38;43.83;;;19.70;;
4674;SDS011;2351;50.812;12.872;2024-01-11T02:07:10;40.92;;;18.83;;
4674;SDS011;2351;50.812;12.872;2024-01-11T02:09:42;42.28;;;18.40;;
4674;SDS011;2351;50.812;12.872;2024-01-11T02:12:15;36.80;;;18.33;;
4674;SDS011;2351;50.812;12.872;2024-01-11T02:14:46;38.65;;;18.80;;
4674;SDS011;2351;50.812;12.872;2024-01-11T02:17:18;34.70;;;18.15;;
4674;SDS011;2351;50.812;12.872;2024-01-11T02:19:52;42.97;;;18.88;;
4674;SDS011;2351;50.812;12.872;2024-01-11T02:22:24;40.92;;;17.63;;
4674;SDS011;2351;50.812;12.872;2024-01-11T02:25:01;40.83;;;19.85;;
4674;SDS011;2351;50.812;12.872;2024-01-11T02:27:44;42.80;;;20.17;;
4674;SDS011;2351;50.812;12.872;2024-01-11T02:30:17;40.17;;;19.92;;
4674;SDS011;2351;50.812;12.872;2024-01-11T02:32:49;37.70;;;19.98;;
4674;SDS011;2351;50.812;12.872;2024-01-11T02:35:21;36.97;;;19.35;;
4674;SDS011;2351;50.812;12.872;2024-01-11T02:37:54;39.95;;;20.10;;
4674;SDS011;2351;50.812;12.872;2024-01-11T02:40:27;36.63;;;19.27;;
4674;SDS011;2351;50.812;12.872;2024-01-11T02:43:06;47.72;;;20.38;;
4674;SDS011;2351;50.812;12.872;2024-01-11T02:45:38;41.63;;;18.88;;
4674;SDS011;2351;50.812;12.872;2024-01-11T02:48:10;34.13;;;18.67;;
4674;SDS011;2351;50.812;12.872;2024-01-11T02:50:42;35.83;;;18.65;;
4674;SDS011;2351;50.812;12.872;2024-01-11T02:53:14;39.60;;;18.55;;
4674;SDS011;2351;50.812;12.872;2024-01-11T02:55:47;37.30;;;19.05;;
4674;SDS011;2351;50.812;12.872;2024-01-11T02:58:18;33.65;;;18.38;;
4674;SDS011;2351;50.812;12.872;2024-01-11T03:00:50;35.30;;;19.08;;
4674;SDS011;2351;50.812;12.872;2024-01-11T03:03:22;43.42;;;20.38;;
4674;SDS011;2351;50.812;12.872;2024-01-11T03:05:53;39.40;;;19.63;;
4674;SDS011;2351;50.812;12.872;2024-01-11T03:08:25;40.70;;;19.90;;
4674;SDS011;2351;50.812;12.872;2024-01-11T03:10:59;43.95;;;21.77;;
4674;SDS011;2351;50.812;12.872;2024-01-11T03:13:31;42.08;;;21.80;;
4674;SDS011;2351;50.812;12.872;2024-01-11T03:16:02;47.38;;;22.40;;
4674;SDS011;2351;50.812;12.872;2024-01-11T03:18:36;41.92;;;22.42;;
4674;SDS011;2351;50.812;12.872;2024-01-11T03:21:08;41.10;;;20.02;;
4674;SDS011;2351;50.812;12.872;2024-01-11T03:23:40;42.80;;;21.10;;
4674;SDS011;2351;50.812;12.872;2024-01-11T03:26:13;49.50;;;22.33;;
4674;SDS011;2351;50.812;12.872;2024-01-11T03:28:45;46.53;;;21.77;;
4674;SDS011;2351;50.812;12.872;2024-01-11T03:31:17;52.03;;;22.27;;
4674;SDS011;2351;50.812;12.872;2024-01-11T03:33:48;45.40;;;22.33;;
4674;SDS011;2351;50.812;12.872;2024-01-11T03:36:22;50.13;;;22.45;;
4674;SDS011;2351;50.812;12.872;2024-01-11T03:38:54;42.70;;;21.98;;
4674;SDS011;2351;50.812;12.872;2024-01-11T03:41:27;41.40;;;21.95;;
4674;SDS011;2351;50.812;12.872;2024-01-11T03:43:59;42.15;;;19.88;;
4674;SDS011;2351;50.812;12.872;2024-01-11T03:46:31;43.60;;;20.83;;
4674;SDS011;2351;50.812;12.872;2024-01-11T03:49:02;50.15;;;22.85;;
4674;SDS011;2351;50.812;12.872;2024-01-11T03:51:34;54.78;;;23.60;;
4674;SDS011;2351;50.812;12.872;2024-01-11T03:54:06;49.63;;;23.35;;
4674;SDS011;2351;50.812;12.872;2024-01-11T03:56:39;58.58;;;25.05;;
4674;SDS011;2351;50.812;12.872;2024-01-11T03:59:11;53.75;;;25.38;;
4674;SDS011;2351;50.812;12.872;2024-01-11T04:01:43;53.38;;;25.90;;
4674;SDS011;2351;50.812;12.872;2024-01-11T04:04:14;57.88;;;25.23;;
4674;SDS011;2351;50.812;12.872;2024-01-11T04:06:46;58.13;;;28.55;;
4674;SDS011;2351;50.812;12.872;2024-01-11T04:09:18;70.68;;;30.50;;
4674;SDS011;2351;50.812;12.872;2024-01-11T04:11:51;60.30;;;27.60;;
4674;SDS011;2351;50.812;12.872;2024-01-11T04:14:23;69.93;;;30.05;;
4674;SDS011;2351;50.812;12.872;2024-01-11T04:16:55;67.55;;;28.50;;
4674;SDS011;2351;50.812;12.872;2024-01-11T04:19:26;76.15;;;30.23;;
4674;SDS011;2351;50.812;12.872;2024-01-11T04:21:58;64.95;;;29.20;;
4674;SDS011;2351;50.812;12.872;2024-01-11T04:24:30;65.07;;;29.88;;
4674;SDS011;2351;50.812;12.872;2024-01-11T04:27:03;62.60;;;28.52;;
4674;SDS011;2351;50.812;12.872;2024-01-11T04:29:35;59.05;;;26.70;;
4674;SDS011;2351;50.812;12.872;2024-01-11T04:32:06;59.67;;;27.27;;
4674;SDS011;2351;50.812;12.872;2024-01-11T04:34:38;68.32;;;27.10;;
4674;SDS011;2351;50.812;12.872;2024-01-11T04:37:10;66.45;;;29.05;;
4674;SDS011;2351;50.812;12.872;2024-01-11T04:39:41;60.65;;;25.77;;
4674;SDS011;2351;50.812;12.872;2024-01-11T04:42:15;55.70;;;26.60;;
4674;SDS011;2351;50.812;12.872;2024-01-11T04:44:46;63.25;;;28.38;;
4674;SDS011;2351;50.812;12.872;2024-01-11T04:47:18;58.22;;;26.98;;
4674;SDS011;2351;50.812;12.872;2024-01-11T04:49:50;70.05;;;28.00;;
4674;SDS011;2351;50.812;12.872;2024-01-11T04:52:21;66.95;;;30.00;;
4674;SDS011;2351;50.812;12.872;2024-01-11T04:54:53;71.07;;;30.60;;
4674;SDS011;2351;50.812;12.872;2024-01-11T04:57:26;61.38;;;29.77;;
4674;SDS011;2351;50.812;12.872;2024-01-11T04:59:58;63.08;;;29.00;;
4674;SDS011;2351;50.812;12.872;2024-01-11T05:02:29;60.85;;;29.45;;
4674;SDS011;2351;50.812;12.872;2024-01-11T05:05:01;70.40;;;30.90;;
4674;SDS011;2351;50.812;12.872;2024-01-11T05:07:33;67.47;;;30.30;;
4674;SDS011;2351;50.812;12.872;2024-01-11T05:10:05;65.00;;;29.88;;
4674;SDS011;2351;50.812;12.872;2024-01-11T05:12:39;64.93;;;29.80;;
4674;SDS011;2351;50.812;12.872;2024-01-11T05:15:11;57.33;;;27.95;;
4674;SDS011;2351;50.812;12.872;2024-01-11T05:17:43;68.60;;;30.77;;
4674;SDS011;2351;50.812;12.872;2024-01-11T05:20:14;72.18;;;28.90;;
4674;SDS011;2351;50.812;12.872;2024-01-11T05:22:46;71.90;;;31.50;;
4674;SDS011;2351;50.812;12.872;2024-01-11T05:25:18;67.07;;;30.65;;
4674;SDS011;2351;50.812;12.872;2024-01-11T05:27:51;70.53;;;33.97;;
4674;SDS011;2351;50.812;12.872;2024-01-11T05:30:22;79.78;;;32.20;;
4674;SDS011;2351;50.812;12.872;2024-01-11T05:32:54;85.90;;;34.92;;
4674;SDS011;2351;50.812;12.872;2024-01-11T05:35:26;102.75;;;36.22;;
4674;SDS011;2351;50.812;12.872;2024-01-11T05:37:58;80.00;;;35.40;;
4674;SDS011;2351;50.812;12.872;2024-01-11T05:40:30;67.93;;;32.50;;
4674;SDS011;2351;50.812;12.872;2024-01-11T05:43:03;79.40;;;34.70;;
4674;SDS011;2351;50.812;12.872;2024-01-11T05:45:35;81.78;;;35.80;;
4674;SDS011;2351;50.812;12.872;2024-01-11T05:48:06;82.30;;;34.65;;
4674;SDS011;2351;50.812;12.872;2024-01-11T05:50:38;84.20;;;36.10;;
4674;SDS011;2351;50.812;12.872;2024-01-11T05:53:10;71.35;;;33.65;;
4674;SDS011;2351;50.812;12.872;2024-01-11T05:55:42;85.18;;;35.83;;
4674;SDS011;2351;50.812;12.872;2024-01-11T05:58:15;65.75;;;31.63;;
4674;SDS011;2351;50.812;12.872;2024-01-11T06:00:47;75.05;;;34.00;;
4674;SDS011;2351;50.812;12.872;2024-01-11T06:03:18;79.35;;;34.78;;
4674;SDS011;2351;50.812;12.872;2024-01-11T06:05:51;80.75;;;34.47;;
4674;SDS011;2351;50.812;12.872;2024-01-11T06:08:22;81.88;;;35.97;;
4674;SDS011;2351;50.812;12.872;2024-01-11T06:10:54;88.88;;;36.80;;
4674;SDS011;2351;50.812;12.872;2024-01-11T06:13:27;82.30;;;34.60;;
4674;SDS011;2351;50.812;12.872;2024-01-11T06:15:59;80.85;;;35.47;;
4674;SDS011;2351;50.812;12.872;2024-01-11T06:18:30;87.25;;;36.67;;
4674;SDS011;2351;50.812;12.872;2024-01-11T06:21:02;76.60;;;35.88;;
4674;SDS011;2351;50.812;12.872;2024-01-11T06:23:34;89.88;;;35.85;;
4674;SDS011;2351;50.812;12.872;2024-01-11T06:26:07;83.32;;;36.95;;
4674;SDS011;2351;50.812;12.872;2024-01-11T06:28:40;87.25;;;36.80;;
4674;SDS011;2351;50.812;12.872;2024-01-11T06:31:12;79.85;;;35.67;;
4674;SDS011;2351;50.812;12.872;2024-01-11T06:33:43;70.85;;;33.50;;
4674;SDS011;2351;50.812;12.872;2024-01-11T06:36:15;81.90;;;35.97;;
4674;SDS011;2351;50.812;12.872;2024-01-11T06:38:47;96.38;;;40.00;;
4674;SDS011;2351;50.812;12.872;2024-01-11T06:41:18;80.90;;;37.03;;
4674;SDS011;2351;50.812;12.872;2024-01-11T06:43:51;93.25;;;40.25;;
4674;SDS011;2351;50.812;12.872;2024-01-11T06:46:23;84.72;;;39.25;;
4674;SDS011;2351;50.812;12.872;2024-01-11T06:48:55;92.55;;;37.90;;
4674;SDS011;2351;50.812;12.872;2024-01-11T06:51:27;107.93;;;40.80;;
4674;SDS011;2351;50.812;12.872;2024-01-11T06:53:59;93.22;;;40.70;;
4674;SDS011;2351;50.812;12.872;2024-01-11T06:56:31;92.20;;;36.20;;
4674;SDS011;2351;50.812;12.872;2024-01-11T06:59:04;91.28;;;36.92;;
4674;SDS011;2351;50.812;12.872;2024-01-11T07:01:37;79.32;;;35.15;;
4674;SDS011;2351;50.812;12.872;2024-01-11T07:04:09;86.13;;;37.38;;
4674;SDS011;2351;50.812;12.872;2024-01-11T07:06:40;95.65;;;40.78;;
4674;SDS011;2351;50.812;12.872;2024-01-11T07:09:12;77.88;;;34.63;;
4674;SDS011;2351;50.812;12.872;2024-01-11T07:11:44;80.15;;;35.22;;
4674;SDS011;2351;50.812;12.872;2024-01-11T07:14:17;93.93;;;35.25;;
4674;SDS011;2351;50.812;12.872;2024-01-11T07:16:49;77.85;;;36.85;;
4674;SDS011;2351;50.812;12.872;2024-01-11T07:19:21;91.00;;;35.35;;
4674;SDS011;2351;50.812;12.872;2024-01-11T07:21:52;73.93;;;34.63;;
4674;SDS011;2351;50.812;12.872;2024-01-11T07:24:24;93.03;;;35.33;;
4674;SDS011;2351;50.812;12.872;2024-01-11T07:26:56;81.47;;;35.30;;
4674;SDS011;2351;50.812;12.872;2024-01-11T07:29:29;78.82;;;33.80;;
4674;SDS011;2351;50.812;12.872;2024-01-11T07:32:01;83.68;;;37.25;;
4674;SDS011;2351;50.812;12.872;2024-01-11T07:34:33;84.40;;;37.50;;
4674;SDS011;2351;50.812;12.872;2024-01-11T07:37:06;89.10;;;36.90;;
4674;SDS011;2351;50.812;12.872;2024-01-11T07:39:38;80.00;;;36.38;;
4674;SDS011;2351;50.812;12.872;2024-01-11T07:42:10;90.70;;;38.22;;
4674;SDS011;2351;50.812;12.872;2024-01-11T07:44:43;95.40;;;37.95;;
4674;SDS011;2351;50.812;12.872;2024-01-11T07:47:15;83.35;;;35.58;;
4674;SDS011;2351;50.812;12.872;2024-01-11T07:49:47;86.57;;;39.83;;
4674;SDS011;2351;50.812;12.872;2024-01-11T07:52:19;92.03;;;39.15;;
4674;SDS011;2351;50.812;12.872;2024-01-11T07:54:51;97.32;;;40.80;;
4674;SDS011;2351;50.812;12.872;2024-01-11T07:57:24;127.15;;;49.65;;
4674;SDS011;2351;50.812;12.872;2024-01-11T07:59:57;114.57;;;47.58;;
4674;SDS011;2351;50.812;12.872;2024-01-11T08:02:29;101.55;;;45.05;;
4674;SDS011;2351;50.812;12.872;2024-01-11T08:05:01;106.70;;;45.38;;
4674;SDS011;2351;50.812;12.872;2024-01-11T08:07:33;105.97;;;41.75;;
4674;SDS011;2351;50.812;12.872;2024-01-11T08:10:05;82.43;;;37.97;;
4674;SDS011;2351;50.812;12.872;2024-01-11T08:12:39;91.78;;;40.10;;
4674;SDS011;2351;50.812;12.872;2024-01-11T08:15:12;93.90;;;39.55;;
4674;SDS011;2351;50.812;12.872;2024-01-11T08:17:44;92.38;;;37.97;;
4674;SDS011;2351;50.812;12.872;2024-01-11T08:20:15;93.50;;;39.88;;
4674;SDS011;2351;50.812;12.872;2024-01-11T08:22:47;80.93;;;38.47;;
4674;SDS011;2351;50.812;12.872;2024-01-11T08:25:19;81.47;;;39.65;;
4674;SDS011;2351;50.812;12.872;2024-01-11T08:27:50;88.18;;;38.50;;
4674;SDS011;2351;50.812;12.872;2024-01-11T08:30:23;97.43;;;43.72;;
4674;SDS011;2351;50.812;12.872;2024-01-11T08:32:55;95.95;;;40.97;;
4674;SDS011;2351;50.812;12.872;2024-01-11T08:35:27;80.68;;;35.85;;
4674;SDS011;2351;50.812;12.872;2024-01-11T08:37:59;90.32;;;37.40;;
4674;SDS011;2351;50.812;12.872;2024-01-11T08:40:31;82.30;;;36.05;;
4674;SDS011;2351;50.812;12.872;2024-01-11T08:43:03;83.47;;;34.03;;
4674;SDS011;2351;50.812;12.872;2024-01-11T08:45:37;82.95;;;36.47;;
4674;SDS011;2351;50.812;12.872;2024-01-11T08:48:09;75.05;;;33.28;;
4674;SDS011;2351;50.812;12.872;2024-01-11T08:50:41;83.85;;;35.38;;
4674;SDS011;2351;50.812;12.872;2024-01-11T08:53:12;85.45;;;36.55;;
4674;SDS011;2351;50.812;12.872;2024-01-11T08:55:45;83.30;;;35.20;;
4674;SDS011;2351;50.812;12.872;2024-01-11T08:58:17;82.78;;;35.10;;
4674;SDS011;2351;50.812;12.872;2024-01-11T09:00:50;76.05;;;33.00;;
4674;SDS011;2351;50.812;12.872;2024-01-11T09:03:22;67.82;;;32.03;;
4674;SDS011;2351;50.812;12.872;2024-01-11T09:05:54;74.75;;;30.20;;
4674;SDS011;2351;50.812;12.872;2024-01-11T09:08:28;64.43;;;31.20;;
4674;SDS011;2351;50.812;12.872;2024-01-11T09:11:00;73.28;;;31.45;;
4674;SDS011;2351;50.812;12.872;2024-01-11T09:13:31;67.20;;;30.88;;
4674;SDS011;2351;50.812;12.872;2024-01-11T09:16:05;64.07;;;28.30;;
4674;SDS011;2351;50.812;12.872;2024-01-11T09:18:37;55.95;;;25.67;;
4674;SDS011;2351;50.812;12.872;2024-01-11T09:21:08;55.58;;;26.70;;
4674;SDS011;2351;50.812;12.872;2024-01-11T09:23:40;57.28;;;26.40;;
4674;SDS011;2351;50.812;12.872;2024-01-11T09:26:12;53.15;;;26.30;;
4674;SDS011;2351;50.812;12.872;2024-01-11T09:28:44;61.10;;;26.60;;
4674;SDS011;2351;50.812;12.872;2024-01-11T09:31:17;61.47;;;27.77;;
4674;SDS011;2351;50.812;12.872;2024-01-11T09:33:49;66.57;;;31.33;;
4674;SDS011;2351;50.812;12.872;2024-01-11T09:36:20;63.60;;;29.20;;
4674;SDS011;2351;50.812;12.872;2024-01-11T09:38:52;69.03;;;28.02;;
4674;SDS011;2351;50.812;12.872;2024-01-11T09:41:24;63.43;;;28.13;;
4674;SDS011;2351;50.812;12.872;2024-01-11T09:43:57;63.95;;;28.63;;
4674;SDS011;2351;50.812;12.872;2024-01-11T09:46:33;58.80;;;27.55;;
4674;SDS011;2351;50.812;12.872;2024-01-11T09:49:05;67.90;;;29.20;;
4674;SDS011;2351;50.812;12.872;2024-01-11T09:51:39;68.57;;;28.33;;
4674;SDS011;2351;50.812;12.872;2024-01-11T09:54:13;66.43;;;30.90;;
4674;SDS011;2351;50.812;12.872;2024-01-11T09:56:46;72.00;;;31.97;;
4674;SDS011;2351;50.812;12.872;2024-01-11T09:59:21;69.27;;;30.60;;
4674;SDS011;2351;50.812;12.872;2024-01-11T10:01:56;73.53;;;30.53;;
4674;SDS011;2351;50.812;12.872;2024-01-11T10:04:28;80.70;;;31.37;;
4674;SDS011;2351;50.812;12.872;2024-01-11T10:07:00;73.00;;;31.90;;
4674;SDS011;2351;50.812;12.872;2024-01-11T10:09:34;82.93;;;31.50;;
4674;SDS011;2351;50.812;12.872;2024-01-11T10:12:06;64.97;;;30.87;;
4674;SDS011;2351;50.812;12.872;2024-01-11T10:14:40;65.27;;;30.63;;
4674;SDS011;2351;50.812;12.872;2024-01-11T10:17:13;70.47;;;30.67;;
4674;SDS011;2351;50.812;12.872;2024-01-11T10:19:46;66.00;;;29.20;;
4674;SDS011;2351;50.812;12.872;2024-01-11T10:22:18;73.30;;;32.93;;
4674;SDS011;2351;50.812;12.872;2024-01-11T10:24:50;73.00;;;30.40;;
4674;SDS011;2351;50.812;12.872;2024-01-11T10:27:25;77.40;;;30.27;;
4674;SDS011;2351;50.812;12.872;2024-01-11T10:29:57;80.15;;;32.42;;
4674;SDS011;2351;50.812;12.872;2024-01-11T10:32:30;66.63;;;29.90;;
4674;SDS011;2351;50.812;12.872;2024-01-11T10:35:05;83.20;;;33.73;;
4674;SDS011;2351;50.812;12.872;2024-01-11T10:37:37;76.17;;;33.60;;
4674;SDS011;2351;50.812;12.872;2024-01-11T10:40:10;87.47;;;32.37;;
4674;SDS011;2351;50.812;12.872;2024-01-11T10:42:43;62.03;;;30.77;;
4674;SDS011;2351;50.812;12.872;2024-01-11T10:45:16;76.13;;;31.67;;
4674;SDS011;2351;50.812;12.872;2024-01-11T10:47:51;81.13;;;34.60;;
4674;SDS011;2351;50.812;12.872;2024-01-11T10:50:27;74.83;;;33.47;;
4674;SDS011;2351;50.812;12.872;2024-01-11T10:53:04;85.40;;;36.03;;
4674;SDS011;2351;50.812;12.872;2024-01-11T10:55:44;67.23;;;32.57;;
4674;SDS011;2351;50.812;12.872;2024-01-11T10:58:18;68.63;;;30.37;;
4674;SDS011;2351;50.812;12.872;2024-01-11T11:00:53;72.47;;;31.67;;
4674;SDS011;2351;50.812;12.872;2024-01-11T11:03:27;71.10;;;31.63;;
4674;SDS011;2351;50.812;12.872;2024-01-11T11:05:59;83.67;;;32.70;;
4674;SDS011;2351;50.812;12.872;2024-01-11T11:08:31;70.27;;;31.87;;
4674;SDS011;2351;50.812;12.872;2024-01-11T11:11:04;71.33;;;32.90;;
4674;SDS011;2351;50.812;12.872;2024-01-11T11:13:36;78.27;;;33.97;;
4674;SDS011;2351;50.812;12.872;2024-01-11T11:16:09;81.00;;;34.30;;
4674;SDS011;2351;50.812;12.872;2024-01-11T11:18:42;72.23;;;33.70;;
4674;SDS011;2351;50.812;12.872;2024-01-11T11:21:14;85.17;;;33.77;;
4674;SDS011;2351;50.812;12.872;2024-01-11T11:23:46;80.37;;;35.00;;
4674;SDS011;2351;50.812;12.872;2024-01-11T11:26:18;84.53;;;35.87;;
4674;SDS011;2351;50.812;12.872;2024-01-11T11:28:50;82.57;;;35.20;;
4674;SDS011;2351;50.812;12.872;2024-01-11T11:31:34;86.27;;;35.87;;
4674;SDS011;2351;50.812;12.872;2024-01-11T11:34:08;85.33;;;37.33;;
4674;SDS011;2351;50.812;12.872;2024-01-11T11:36:42;78.17;;;34.83;;
4674;SDS011;2351;50.812;12.872;2024-01-11T11:39:17;83.10;;;36.20;;
4674;SDS011;2351;50.812;12.872;2024-01-11T11:41:49;84.90;;;37.13;;
4674;SDS011;2351;50.812;12.872;2024-01-11T11:44:22;72.17;;;34.60;;
4674;SDS011;2351;50.812;12.872;2024-01-11T11:46:55;79.03;;;37.20;;
4674;SDS011;2351;50.812;12.872;2024-01-11T11:49:58;84.83;;;35.67;;
4674;SDS011;2351;50.812;12.872;2024-01-11T11:52:36;75.97;;;37.43;;
4674;SDS011;2351;50.812;12.872;2024-01-11T11:55:09;89.20;;;37.50;;
4674;SDS011;2351;50.812;12.872;2024-01-11T11:57:41;90.10;;;37.60;;
4674;SDS011;2351;50.812;12.872;2024-01-11T12:00:14;89.07;;;38.03;;
4674;SDS011;2351;50.812;12.872;2024-01-11T12:02:47;96.13;;;38.97;;
4674;SDS011;2351;50.812;12.872;2024-01-11T12:05:20;83.40;;;35.40;;
4674;SDS011;2351;50.812;12.872;2024-01-11T12:07:52;87.40;;;39.07;;
4674;SDS011;2351;50.812;12.872;2024-01-11T12:10:25;88.43;;;36.20;;
4674;SDS011;2351;50.812;12.872;2024-01-11T12:12:57;83.70;;;37.50;;
4674;SDS011;2351;50.812;12.872;2024-01-11T12:15:30;90.90;;;38.63;;
4674;SDS011;2351;50.812;12.872;2024-01-11T12:18:02;81.43;;;36.40;;
4674;SDS011;2351;50.812;12.872;2024-01-11T12:20:36;94.40;;;35.30;;
4674;SDS011;2351;50.812;12.872;2024-01-11T12:23:08;89.33;;;36.47;;
4674;SDS011;2351;50.812;12.872;2024-01-11T12:25:40;83.70;;;36.97;;
4674;SDS011;2351;50.812;12.872;2024-01-11T12:28:12;77.53;;;33.47;;
4674;SDS011;2351;50.812;12.872;2024-01-11T12:30:44;81.77;;;35.70;;
4674;SDS011;2351;50.812;12.872;2024-01-11T12:33:16;78.67;;;32.43;;
4674;SDS011;2351;50.812;12.872;2024-01-11T12:35:50;76.37;;;34.73;;
4674;SDS011;2351;50.812;12.872;2024-01-11T12:38:22;74.60;;;33.27;;
4674;SDS011;2351;50.812;12.872;2024-01-11T12:40:53;70.37;;;33.90;;
4674;SDS011;2351;50.812;12.872;2024-01-11T12:43:25;79.17;;;33.80;;
4674;SDS011;2351;50.812;12.872;2024-01-11T12:45:57;85.00;;;32.63;;
4674;SDS011;2351;50.812;12.872;2024-01-11T12:48:28;69.47;;;32.40;;
4674;SDS011;2351;50.812;12.872;2024-01-11T12:51:02;70.43;;;32.30;;
4674;SDS011;2351;50.812;12.872;2024-01-11T12:53:35;77.47;;;33.83;;
4674;SDS011;2351;50.812;12.872;2024-01-11T12:56:08;79.93;;;33.37;;
4674;SDS011;2351;50.812;12.872;2024-01-11T12:58:40;67.77;;;31.17;;
4674;SDS011;2351;50.812;12.872;2024-01-11T13:01:13;69.70;;;31.53;;
4674;SDS011;2351;50.812;12.872;2024-01-11T13:03:45;74.67;;;31.10;;
4674;SDS011;2351;50.812;12.872;2024-01-11T13:06:19;79.93;;;32.57;;
4674;SDS011;2351;50.812;12.872;2024-01-11T13:08:51;80.00;;;34.57;;
4674;SDS011;2351;50.812;12.872;2024-01-11T13:11:23;68.73;;;31.67;;
4674;SDS011;2351;50.812;12.872;2024-01-11T13:13:55;62.83;;;29.50;;
4674;SDS011;2351;50.812;12.872;2024-01-11T13:16:29;68.63;;;31.40;;
4674;SDS011;2351;50.812;12.872;2024-01-11T13:19:00;71.60;;;32.47;;
4674;SDS011;2351;50.812;12.872;2024-01-11T13:21:33;67.67;;;30.93;;
4674;SDS011;2351;50.812;12.872;2024-01-11T13:24:06;70.53;;;30.77;;
4674;SDS011;2351;50.812;12.872;2024-01-11T13:26:38;68.57;;;32.20;;
4674;SDS011;2351;50.812;12.872;2024-01-11T13:29:10;72.70;;;31.30;;
4674;SDS011;2351;50.812;12.872;2024-01-11T13:31:42;66.93;;;29.70;;
4674;SDS011;2351;50.812;12.872;2024-01-11T13:34:14;75.07;;;33.20;;
4674;SDS011;2351;50.812;12.872;2024-01-11T13:36:47;70.30;;;31.23;;
4674;SDS011;2351;50.812;12.872;2024-01-11T13:39:19;64.87;;;30.67;;
4674;SDS011;2351;50.812;12.872;2024-01-11T13:41:50;59.83;;;26.73;;
4674;SDS011;2351;50.812;12.872;2024-01-11T13:44:22;58.67;;;29.70;;
4674;SDS011;2351;50.812;12.872;2024-01-11T13:46:54;65.30;;;29.37;;
4674;SDS011;2351;50.812;12.872;2024-01-11T13:49:25;58.40;;;27.30;;
4674;SDS011;2351;50.812;12.872;2024-01-11T13:51:58;69.67;;;28.63;;
4674;SDS011;2351;50.812;12.872;2024-01-11T13:54:30;78.20;;;30.27;;
4674;SDS011;2351;50.812;12.872;2024-01-11T13:57:02;63.20;;;30.90;;
4674;SDS011;2351;50.812;12.872;2024-01-11T13:59:34;66.13;;;27.60;;
4674;SDS011;2351;50.812;12.872;2024-01-11T14:02:06;61.43;;;29.70;;
4674;SDS011;2351;50.812;12.872;2024-01-11T14:04:37;68.90;;;33.03;;
4674;SDS011;2351;50.812;12.872;2024-01-11T14:07:10;60.40;;;27.77;;
4674;SDS011;2351;50.812;12.872;2024-01-11T14:09:42;68.53;;;29.30;;
4674;SDS011;2351;50.812;12.872;2024-01-11T14:12:14;66.37;;;30.20;;
4674;SDS011;2351;50.812;12.872;2024-01-11T14:14:45;69.33;;;30.47;;
4674;SDS011;2351;50.812;12.872;2024-01-11T14:17:17;72.40;;;29.77;;
4674;SDS011;2351;50.812;12.872;2024-01-11T14:19:49;67.87;;;30.30;;
4674;SDS011;2351;50.812;12.872;2024-01-11T14:22:22;67.23;;;30.00;;
4674;SDS011;2351;50.812;12.872;2024-01-11T14:24:54;66.00;;;31.63;;
4674;SDS011;2351;50.812;12.872;2024-01-11T14:27:26;71.03;;;31.00;;
4674;SDS011;2351;50.812;12.872;2024-01-11T14:29:58;63.67;;;28.70;;
4674;SDS011;2351;50.812;12.872;2024-01-11T14:32:30;77.37;;;32.30;;
4674;SDS011;2351;50.812;12.872;2024-01-11T14:35:01;69.10;;;27.83;;
4674;SDS011;2351;50.812;12.872;2024-01-11T14:37:36;67.03;;;29.93;;
4674;SDS011;2351;50.812;12.872;2024-01-11T14:40:10;74.03;;;30.20;;
4674;SDS011;2351;50.812;12.872;2024-01-11T14:42:42;72.60;;;30.00;;
4674;SDS011;2351;50.812;12.872;2024-01-11T14:45:14;63.47;;;27.97;;
4674;SDS011;2351;50.812;12.872;2024-01-11T14:47:45;65.10;;;28.60;;
4674;SDS011;2351;50.812;12.872;2024-01-11T14:50:17;66.83;;;29.50;;
4674;SDS011;2351;50.812;12.872;2024-01-11T14:52:51;66.77;;;29.17;;
4674;SDS011;2351;50.812;12.872;2024-01-11T14:55:22;69.40;;;30.40;;
4674;SDS011;2351;50.812;12.872;2024-01-11T14:57:54;67.90;;;30.20;;
4674;SDS011;2351;50.812;12.872;2024-01-11T15:00:26;67.60;;;30.30;;
4674;SDS011;2351;50.812;12.872;2024-01-11T15:02:58;64.53;;;30.40;;